sensor_id;sensor_type;location;lat;lon;timestamp;temperature;humidity
12060;DHT22;6091;51.432;6.880;2022-10-30T00:01:11;26.90;44.50
12060;DHT22;6091;51.432;6.880;2022-10-30T00:03:38;26.90;44.50
12060;DHT22;6091;51.432;6.880;2022-10-30T00:06:05;26.90;44.50
12060;DHT22;6091;51.432;6.880;2022-10-30T00:08:32;26.90;44.50
12060;DHT22;6091;51.432;6.880;2022-10-30T00:11:11;26.90;44.50
12060;DHT22;6091;51.432;6.880;2022-10-30T00:13:38;27.00;44.60
12060;DHT22;6091;51.432;6.880;2022-10-30T00:16:08;26.90;44.50
12060;DHT22;6091;51.432;6.880;2022-10-30T00:18:36;26.90;44.50
12060;DHT22;6091;51.432;6.880;2022-10-30T00:21:06;26.90;44.50
12060;DHT22;6091;51.432;6.880;2022-10-30T00:23:37;26.90;44.50
12060;DHT22;6091;51.432;6.880;2022-10-30T00:26:05;26.90;44.50
12060;DHT22;6091;51.432;6.880;2022-10-30T00:28:33;26.90;44.50
12060;DHT22;6091;51.432;6.880;2022-10-30T00:31:01;26.90;44.50
12060;DHT22;6091;51.432;6.880;2022-10-30T00:33:30;26.90;44.50
12060;DHT22;6091;51.432;6.880;2022-10-30T00:35:59;26.90;44.50
12060;DHT22;6091;51.432;6.880;2022-10-30T00:38:26;26.90;44.50
12060;DHT22;6091;51.432;6.880;2022-10-30T00:40:53;26.90;44.50
12060;DHT22;6091;51.432;6.880;2022-10-30T00:48:38;26.90;44.60
12060;DHT22;6091;51.432;6.880;2022-10-30T00:51:07;26.90;44.50
12060;DHT22;6091;51.432;6.880;2022-10-30T00:53:38;26.90;44.50
12060;DHT22;6091;51.432;6.880;2022-10-30T00:56:08;26.80;44.50
12060;DHT22;6091;51.432;6.880;2022-10-30T00:58:41;26.90;44.60
12060;DHT22;6091;51.432;6.880;2022-10-30T01:01:18;26.90;44.60
12060;DHT22;6091;51.432;6.880;2022-10-30T01:03:50;26.80;44.50
12060;DHT22;6091;51.432;6.880;2022-10-30T01:06:25;26.90;44.70
12060;DHT22;6091;51.432;6.880;2022-10-30T01:08:54;26.80;44.50
12060;DHT22;6091;51.432;6.880;2022-10-30T01:11:26;26.80;44.50
12060;DHT22;6091;51.432;6.880;2022-10-30T01:13:55;26.90;44.60
12060;DHT22;6091;51.432;6.880;2022-10-30T01:34:57;26.80;44.50
12060;DHT22;6091;51.432;6.880;2022-10-30T01:37:46;26.80;44.50
12060;DHT22;6091;51.432;6.880;2022-10-30T01:40:20;26.80;44.50
12060;DHT22;6091;51.432;6.880;2022-10-30T01:48:46;26.80;44.60
12060;DHT22;6091;51.432;6.880;2022-10-30T01:51:39;26.80;44.60
12060;DHT22;6091;51.432;6.880;2022-10-30T01:57:11;26.80;44.50
12060;DHT22;6091;51.432;6.880;2022-10-30T01:59:51;26.80;44.60
12060;DHT22;6091;51.432;6.880;2022-10-30T02:02:25;26.80;44.60
12060;DHT22;6091;51.432;6.880;2022-10-30T02:04:52;26.80;45.20
12060;DHT22;6091;51.432;6.880;2022-10-30T02:07:19;26.70;44.50
12060;DHT22;6091;51.432;6.880;2022-10-30T02:09:47;26.70;44.60
12060;DHT22;6091;51.432;6.880;2022-10-30T02:12:17;26.80;44.60
12060;DHT22;6091;51.432;6.880;2022-10-30T02:14:48;26.70;44.60
12060;DHT22;6091;51.432;6.880;2022-10-30T02:17:19;26.70;44.60
12060;DHT22;6091;51.432;6.880;2022-10-30T02:19:46;26.80;44.60
12060;DHT22;6091;51.432;6.880;2022-10-30T02:22:13;26.70;44.60
12060;DHT22;6091;51.432;6.880;2022-10-30T02:24:40;26.70;44.60
12060;DHT22;6091;51.432;6.880;2022-10-30T02:27:07;26.70;44.60
12060;DHT22;6091;51.432;6.880;2022-10-30T02:29:36;26.70;44.60
12060;DHT22;6091;51.432;6.880;2022-10-30T02:32:03;26.70;44.60
12060;DHT22;6091;51.432;6.880;2022-10-30T02:34:30;26.70;44.60
12060;DHT22;6091;51.432;6.880;2022-10-30T02:36:57;26.70;44.60
12060;DHT22;6091;51.432;6.880;2022-10-30T02:39:24;26.70;44.60
12060;DHT22;6091;51.432;6.880;2022-10-30T02:41:51;26.70;44.60
12060;DHT22;6091;51.432;6.880;2022-10-30T02:44:18;26.70;44.60
12060;DHT22;6091;51.432;6.880;2022-10-30T02:46:44;26.70;44.60
12060;DHT22;6091;51.432;6.880;2022-10-30T02:49:11;26.70;44.60
12060;DHT22;6091;51.432;6.880;2022-10-30T02:51:38;26.70;44.60
12060;DHT22;6091;51.432;6.880;2022-10-30T02:54:05;26.70;44.70
12060;DHT22;6091;51.432;6.880;2022-10-30T02:56:32;26.70;44.70
12060;DHT22;6091;51.432;6.880;2022-10-30T02:58:59;26.70;44.70
12060;DHT22;6091;51.432;6.880;2022-10-30T03:01:26;26.70;45.30
12060;DHT22;6091;51.432;6.880;2022-10-30T03:03:53;26.70;44.70
12060;DHT22;6091;51.432;6.880;2022-10-30T03:06:21;26.60;44.60
12060;DHT22;6091;51.432;6.880;2022-10-30T03:08:49;26.70;44.70
12060;DHT22;6091;51.432;6.880;2022-10-30T03:11:19;26.60;44.60
12060;DHT22;6091;51.432;6.880;2022-10-30T03:13:49;26.70;44.70
12060;DHT22;6091;51.432;6.880;2022-10-30T03:16:27;26.70;44.70
12060;DHT22;6091;51.432;6.880;2022-10-30T03:18:55;26.60;44.70
12060;DHT22;6091;51.432;6.880;2022-10-30T03:21:24;26.60;44.70
12060;DHT22;6091;51.432;6.880;2022-10-30T03:23:53;26.60;44.60
12060;DHT22;6091;51.432;6.880;2022-10-30T03:26:21;26.60;44.60
12060;DHT22;6091;51.432;6.880;2022-10-30T03:28:48;26.60;44.60
12060;DHT22;6091;51.432;6.880;2022-10-30T03:31:17;26.60;44.60
12060;DHT22;6091;51.432;6.880;2022-10-30T03:33:45;26.60;44.70
12060;DHT22;6091;51.432;6.880;2022-10-30T03:36:13;26.60;44.70
12060;DHT22;6091;51.432;6.880;2022-10-30T03:38:41;26.60;44.70
12060;DHT22;6091;51.432;6.880;2022-10-30T03:41:09;26.60;44.70
12060;DHT22;6091;51.432;6.880;2022-10-30T03:43:35;26.60;44.70
12060;DHT22;6091;51.432;6.880;2022-10-30T03:46:02;26.60;44.70
12060;DHT22;6091;51.432;6.880;2022-10-30T03:48:30;26.60;44.70
12060;DHT22;6091;51.432;6.880;2022-10-30T03:50:58;26.60;44.70
12060;DHT22;6091;51.432;6.880;2022-10-30T03:53:28;26.60;44.70
12060;DHT22;6091;51.432;6.880;2022-10-30T03:56:00;26.60;44.70
12060;DHT22;6091;51.432;6.880;2022-10-30T03:58:28;26.60;44.80
12060;DHT22;6091;51.432;6.880;2022-10-30T04:01:04;26.60;44.70
12060;DHT22;6091;51.432;6.880;2022-10-30T04:03:32;26.60;44.80
12060;DHT22;6091;51.432;6.880;2022-10-30T04:05:59;26.60;44.70
12060;DHT22;6091;51.432;6.880;2022-10-30T04:08:26;26.50;44.70
12060;DHT22;6091;51.432;6.880;2022-10-30T04:10:53;26.50;44.70
12060;DHT22;6091;51.432;6.880;2022-10-30T04:13:20;26.50;44.70
12060;DHT22;6091;51.432;6.880;2022-10-30T04:15:47;26.60;44.80
12060;DHT22;6091;51.432;6.880;2022-10-30T04:18:23;26.60;44.80
12060;DHT22;6091;51.432;6.880;2022-10-30T04:20:51;26.50;44.70
12060;DHT22;6091;51.432;6.880;2022-10-30T04:23:19;26.50;44.70
12060;DHT22;6091;51.432;6.880;2022-10-30T04:25:47;26.50;44.70
12060;DHT22;6091;51.432;6.880;2022-10-30T04:28:15;26.50;44.70
12060;DHT22;6091;51.432;6.880;2022-10-30T04:30:42;26.50;44.80
12060;DHT22;6091;51.432;6.880;2022-10-30T04:33:11;26.50;44.70
12060;DHT22;6091;51.432;6.880;2022-10-30T04:35:40;26.50;44.70
12060;DHT22;6091;51.432;6.880;2022-10-30T04:38:09;26.50;44.80
12060;DHT22;6091;51.432;6.880;2022-10-30T04:40:41;26.50;44.80
12060;DHT22;6091;51.432;6.880;2022-10-30T04:43:09;26.50;44.80
12060;DHT22;6091;51.432;6.880;2022-10-30T04:45:37;26.50;44.80
12060;DHT22;6091;51.432;6.880;2022-10-30T04:48:07;26.50;44.80
12060;DHT22;6091;51.432;6.880;2022-10-30T04:50:34;26.50;44.80
12060;DHT22;6091;51.432;6.880;2022-10-30T04:53:12;26.50;44.80
12060;DHT22;6091;51.432;6.880;2022-10-30T04:55:41;26.50;44.80
12060;DHT22;6091;51.432;6.880;2022-10-30T04:58:10;26.50;44.80
12060;DHT22;6091;51.432;6.880;2022-10-30T05:00:38;26.50;44.80
12060;DHT22;6091;51.432;6.880;2022-10-30T05:03:05;26.50;44.80
12060;DHT22;6091;51.432;6.880;2022-10-30T05:05:32;26.40;44.80
12060;DHT22;6091;51.432;6.880;2022-10-30T05:07:59;26.40;44.80
12060;DHT22;6091;51.432;6.880;2022-10-30T05:10:26;26.50;44.90
12060;DHT22;6091;51.432;6.880;2022-10-30T05:12:53;26.50;44.80
12060;DHT22;6091;51.432;6.880;2022-10-30T05:15:20;26.40;44.80
12060;DHT22;6091;51.432;6.880;2022-10-30T05:17:52;26.40;44.80
12060;DHT22;6091;51.432;6.880;2022-10-30T05:20:22;26.40;44.90
12060;DHT22;6091;51.432;6.880;2022-10-30T05:22:57;26.40;44.80
12060;DHT22;6091;51.432;6.880;2022-10-30T05:25:25;26.40;44.90
12060;DHT22;6091;51.432;6.880;2022-10-30T05:28:00;26.40;44.80
12060;DHT22;6091;51.432;6.880;2022-10-30T05:30:29;26.40;44.90
12060;DHT22;6091;51.432;6.880;2022-10-30T05:32:58;26.40;44.80
12060;DHT22;6091;51.432;6.880;2022-10-30T05:35:30;26.40;44.90
12060;DHT22;6091;51.432;6.880;2022-10-30T05:37:59;26.40;44.90
12060;DHT22;6091;51.432;6.880;2022-10-30T05:40:26;26.40;44.90
12060;DHT22;6091;51.432;6.880;2022-10-30T05:42:54;26.40;44.90
12060;DHT22;6091;51.432;6.880;2022-10-30T05:45:21;26.40;44.90
12060;DHT22;6091;51.432;6.880;2022-10-30T05:48:04;26.40;45.00
12060;DHT22;6091;51.432;6.880;2022-10-30T05:50:32;26.40;44.90
12060;DHT22;6091;51.432;6.880;2022-10-30T05:53:01;26.40;44.90
12060;DHT22;6091;51.432;6.880;2022-10-30T05:55:30;26.30;44.90
12060;DHT22;6091;51.432;6.880;2022-10-30T05:57:59;26.30;44.80
12060;DHT22;6091;51.432;6.880;2022-10-30T06:00:29;26.30;44.90
12060;DHT22;6091;51.432;6.880;2022-10-30T06:03:02;26.30;44.90
12060;DHT22;6091;51.432;6.880;2022-10-30T06:05:36;26.30;44.90
12060;DHT22;6091;51.432;6.880;2022-10-30T06:08:05;26.30;44.90
12060;DHT22;6091;51.432;6.880;2022-10-30T06:10:33;26.30;44.90
12060;DHT22;6091;51.432;6.880;2022-10-30T06:13:03;26.30;44.90
12060;DHT22;6091;51.432;6.880;2022-10-30T06:15:34;26.30;44.90
12060;DHT22;6091;51.432;6.880;2022-10-30T06:18:01;26.30;44.90
12060;DHT22;6091;51.432;6.880;2022-10-30T06:20:29;26.30;44.90
12060;DHT22;6091;51.432;6.880;2022-10-30T06:23:05;26.30;44.90
12060;DHT22;6091;51.432;6.880;2022-10-30T06:25:35;26.30;45.00
12060;DHT22;6091;51.432;6.880;2022-10-30T06:28:10;26.30;44.90
12060;DHT22;6091;51.432;6.880;2022-10-30T06:30:37;26.30;44.90
12060;DHT22;6091;51.432;6.880;2022-10-30T06:33:05;26.30;45.00
12060;DHT22;6091;51.432;6.880;2022-10-30T06:35:32;26.30;45.00
12060;DHT22;6091;51.432;6.880;2022-10-30T06:37:59;26.30;45.00
12060;DHT22;6091;51.432;6.880;2022-10-30T06:40:27;26.30;45.00
12060;DHT22;6091;51.432;6.880;2022-10-30T06:42:57;26.30;45.00
12060;DHT22;6091;51.432;6.880;2022-10-30T06:45:25;26.30;45.00
12060;DHT22;6091;51.432;6.880;2022-10-30T06:47:55;26.20;44.90
12060;DHT22;6091;51.432;6.880;2022-10-30T06:50:23;26.20;45.00
12060;DHT22;6091;51.432;6.880;2022-10-30T06:52:50;26.20;45.00
12060;DHT22;6091;51.432;6.880;2022-10-30T06:55:17;26.20;45.00
12060;DHT22;6091;51.432;6.880;2022-10-30T06:57:45;26.20;45.00
12060;DHT22;6091;51.432;6.880;2022-10-30T07:00:12;25.90;44.80
12060;DHT22;6091;51.432;6.880;2022-10-30T07:02:39;26.20;45.00
12060;DHT22;6091;51.432;6.880;2022-10-30T07:05:06;26.30;45.10
12060;DHT22;6091;51.432;6.880;2022-10-30T07:07:33;26.20;45.00
12060;DHT22;6091;51.432;6.880;2022-10-30T07:10:00;26.30;45.10
12060;DHT22;6091;51.432;6.880;2022-10-30T07:12:27;26.20;45.00
12060;DHT22;6091;51.432;6.880;2022-10-30T07:14:54;26.20;45.00
12060;DHT22;6091;51.432;6.880;2022-10-30T07:17:21;26.20;45.60
12060;DHT22;6091;51.432;6.880;2022-10-30T07:19:48;26.30;45.10
12060;DHT22;6091;51.432;6.880;2022-10-30T07:22:15;26.20;45.00
12060;DHT22;6091;51.432;6.880;2022-10-30T07:24:42;26.20;45.00
12060;DHT22;6091;51.432;6.880;2022-10-30T07:27:09;26.30;45.10
12060;DHT22;6091;51.432;6.880;2022-10-30T07:29:36;26.20;45.10
12060;DHT22;6091;51.432;6.880;2022-10-30T07:32:03;26.20;45.00
12060;DHT22;6091;51.432;6.880;2022-10-30T07:34:31;26.20;45.20
12060;DHT22;6091;51.432;6.880;2022-10-30T07:36:58;26.20;45.00
12060;DHT22;6091;51.432;6.880;2022-10-30T07:39:25;26.20;45.10
12060;DHT22;6091;51.432;6.880;2022-10-30T07:41:52;26.20;45.30
12060;DHT22;6091;51.432;6.880;2022-10-30T07:44:19;26.30;45.10
12060;DHT22;6091;51.432;6.880;2022-10-30T07:46:46;26.20;45.10
12060;DHT22;6091;51.432;6.880;2022-10-30T07:49:13;26.20;45.10
12060;DHT22;6091;51.432;6.880;2022-10-30T07:51:40;26.20;45.10
12060;DHT22;6091;51.432;6.880;2022-10-30T07:54:06;26.20;45.10
12060;DHT22;6091;51.432;6.880;2022-10-30T07:56:33;26.20;45.10
12060;DHT22;6091;51.432;6.880;2022-10-30T07:59:00;26.20;45.10
12060;DHT22;6091;51.432;6.880;2022-10-30T08:01:27;26.20;45.20
12060;DHT22;6091;51.432;6.880;2022-10-30T08:03:54;26.30;45.10
12060;DHT22;6091;51.432;6.880;2022-10-30T08:06:21;26.30;45.10
12060;DHT22;6091;51.432;6.880;2022-10-30T08:08:52;26.30;45.10
12060;DHT22;6091;51.432;6.880;2022-10-30T08:11:19;26.20;45.10
12060;DHT22;6091;51.432;6.880;2022-10-30T08:13:46;26.20;45.00
12060;DHT22;6091;51.432;6.880;2022-10-30T08:16:13;26.30;45.10
12060;DHT22;6091;51.432;6.880;2022-10-30T08:18:40;26.30;45.20
12060;DHT22;6091;51.432;6.880;2022-10-30T08:21:08;26.30;45.10
12060;DHT22;6091;51.432;6.880;2022-10-30T08:23:36;25.80;45.40
12060;DHT22;6091;51.432;6.880;2022-10-30T08:26:03;26.30;45.20
12060;DHT22;6091;51.432;6.880;2022-10-30T08:28:31;26.30;45.10
12060;DHT22;6091;51.432;6.880;2022-10-30T08:30:59;26.30;45.20
12060;DHT22;6091;51.432;6.880;2022-10-30T08:33:28;26.30;45.10
12060;DHT22;6091;51.432;6.880;2022-10-30T08:35:57;26.30;45.20
12060;DHT22;6091;51.432;6.880;2022-10-30T08:38:25;26.30;45.10
12060;DHT22;6091;51.432;6.880;2022-10-30T08:40:54;26.40;45.20
12060;DHT22;6091;51.432;6.880;2022-10-30T08:43:21;26.30;45.10
12060;DHT22;6091;51.432;6.880;2022-10-30T08:45:50;26.40;45.20
12060;DHT22;6091;51.432;6.880;2022-10-30T08:48:17;26.40;45.20
12060;DHT22;6091;51.432;6.880;2022-10-30T08:50:44;26.40;45.20
12060;DHT22;6091;51.432;6.880;2022-10-30T08:53:13;26.40;45.20
12060;DHT22;6091;51.432;6.880;2022-10-30T08:55:41;26.40;45.20
12060;DHT22;6091;51.432;6.880;2022-10-30T08:58:08;26.40;45.70
12060;DHT22;6091;51.432;6.880;2022-10-30T09:00:35;26.40;45.20
12060;DHT22;6091;51.432;6.880;2022-10-30T09:03:02;26.40;45.20
12060;DHT22;6091;51.432;6.880;2022-10-30T09:05:30;26.40;45.20
12060;DHT22;6091;51.432;6.880;2022-10-30T09:07:57;26.40;45.10
12060;DHT22;6091;51.432;6.880;2022-10-30T09:10:28;26.40;45.10
12060;DHT22;6091;51.432;6.880;2022-10-30T09:12:59;26.40;45.10
12060;DHT22;6091;51.432;6.880;2022-10-30T09:15:28;26.50;45.20
12060;DHT22;6091;51.432;6.880;2022-10-30T09:18:00;26.40;45.10
12060;DHT22;6091;51.432;6.880;2022-10-30T09:20:29;26.40;45.10
12060;DHT22;6091;51.432;6.880;2022-10-30T09:22:56;26.50;45.10
12060;DHT22;6091;51.432;6.880;2022-10-30T09:25:25;26.50;45.10
12060;DHT22;6091;51.432;6.880;2022-10-30T09:27:52;26.50;45.10
12060;DHT22;6091;51.432;6.880;2022-10-30T09:30:19;26.50;45.10
12060;DHT22;6091;51.432;6.880;2022-10-30T09:32:58;26.50;45.10
12060;DHT22;6091;51.432;6.880;2022-10-30T09:35:28;26.50;45.10
12060;DHT22;6091;51.432;6.880;2022-10-30T09:37:57;26.50;45.10
12060;DHT22;6091;51.432;6.880;2022-10-30T09:49:45;26.60;45.10
12060;DHT22;6091;51.432;6.880;2022-10-30T09:52:28;26.60;45.10
12060;DHT22;6091;51.432;6.880;2022-10-30T09:55:10;26.70;45.10
12060;DHT22;6091;51.432;6.880;2022-10-30T10:00:23;26.70;45.20
12060;DHT22;6091;51.432;6.880;2022-10-30T10:06:16;26.80;45.10
12060;DHT22;6091;51.432;6.880;2022-10-30T10:08:50;26.80;45.10
12060;DHT22;6091;51.432;6.880;2022-10-30T10:11:23;26.80;45.10
12060;DHT22;6091;51.432;6.880;2022-10-30T10:14:17;26.80;45.10
12060;DHT22;6091;51.432;6.880;2022-10-30T10:16:54;26.80;45.00
12060;DHT22;6091;51.432;6.880;2022-10-30T10:19:50;26.80;45.10
12060;DHT22;6091;51.432;6.880;2022-10-30T10:22:40;26.90;45.00
12060;DHT22;6091;51.432;6.880;2022-10-30T10:25:15;27.00;45.00
12060;DHT22;6091;51.432;6.880;2022-10-30T10:28:02;27.00;45.10
12060;DHT22;6091;51.432;6.880;2022-10-30T10:31:02;27.00;45.10
12060;DHT22;6091;51.432;6.880;2022-10-30T10:33:57;27.10;44.90
12060;DHT22;6091;51.432;6.880;2022-10-30T10:36:49;27.10;44.90
12060;DHT22;6091;51.432;6.880;2022-10-30T10:42:25;27.30;44.80
12060;DHT22;6091;51.432;6.880;2022-10-30T10:50:49;27.50;44.90
12060;DHT22;6091;51.432;6.880;2022-10-30T10:53:28;27.60;44.90
12060;DHT22;6091;51.432;6.880;2022-10-30T10:56:00;27.70;44.80
12060;DHT22;6091;51.432;6.880;2022-10-30T10:58:49;27.80;45.00
12060;DHT22;6091;51.432;6.880;2022-10-30T11:01:25;27.90;44.60
12060;DHT22;6091;51.432;6.880;2022-10-30T11:04:17;27.90;44.70
12060;DHT22;6091;51.432;6.880;2022-10-30T11:07:24;28.10;44.60
12060;DHT22;6091;51.432;6.880;2022-10-30T11:09:56;28.20;44.40
12060;DHT22;6091;51.432;6.880;2022-10-30T11:12:29;28.30;44.70
12060;DHT22;6091;51.432;6.880;2022-10-30T11:18:00;28.50;44.30
12060;DHT22;6091;51.432;6.880;2022-10-30T11:23:43;28.70;44.20
12060;DHT22;6091;51.432;6.880;2022-10-30T11:28:52;29.00;44.10
12060;DHT22;6091;51.432;6.880;2022-10-30T11:31:27;29.00;44.10
12060;DHT22;6091;51.432;6.880;2022-10-30T11:36:49;29.20;43.70
12060;DHT22;6091;51.432;6.880;2022-10-30T11:39:19;29.30;43.90
12060;DHT22;6091;51.432;6.880;2022-10-30T11:44:38;29.40;43.50
12060;DHT22;6091;51.432;6.880;2022-10-30T11:47:07;29.40;43.30
12060;DHT22;6091;51.432;6.880;2022-10-30T11:49:44;29.40;43.60
12060;DHT22;6091;51.432;6.880;2022-10-30T11:52:18;29.50;43.30
12060;DHT22;6091;51.432;6.880;2022-10-30T11:54:56;29.60;43.50
12060;DHT22;6091;51.432;6.880;2022-10-30T11:57:37;29.60;43.40
12060;DHT22;6091;51.432;6.880;2022-10-30T12:00:29;29.70;42.90
12060;DHT22;6091;51.432;6.880;2022-10-30T12:03:00;29.70;42.80
12060;DHT22;6091;51.432;6.880;2022-10-30T12:10:37;29.70;42.50
12060;DHT22;6091;51.432;6.880;2022-10-30T12:13:16;29.70;42.70
12060;DHT22;6091;51.432;6.880;2022-10-30T12:15:46;29.60;42.40
12060;DHT22;6091;51.432;6.880;2022-10-30T12:18:25;29.60;42.50
12060;DHT22;6091;51.432;6.880;2022-10-30T12:20:58;29.60;42.20
12060;DHT22;6091;51.432;6.880;2022-10-30T12:23:28;29.50;42.40
12060;DHT22;6091;51.432;6.880;2022-10-30T12:26:06;29.50;42.40
12060;DHT22;6091;51.432;6.880;2022-10-30T12:28:37;29.40;42.20
12060;DHT22;6091;51.432;6.880;2022-10-30T12:31:16;29.60;42.50
12060;DHT22;6091;51.432;6.880;2022-10-30T12:37:24;29.30;42.10
12060;DHT22;6091;51.432;6.880;2022-10-30T12:40:15;29.20;42.20
12060;DHT22;6091;51.432;6.880;2022-10-30T12:45:33;29.10;42.20
12060;DHT22;6091;51.432;6.880;2022-10-30T12:48:37;29.00;42.10
12060;DHT22;6091;51.432;6.880;2022-10-30T12:51:28;29.00;42.20
12060;DHT22;6091;51.432;6.880;2022-10-30T12:57:12;28.90;42.20
12060;DHT22;6091;51.432;6.880;2022-10-30T13:02:55;28.80;42.20
12060;DHT22;6091;51.432;6.880;2022-10-30T13:05:38;28.70;42.30
12060;DHT22;6091;51.432;6.880;2022-10-30T13:13:54;28.60;42.30
12060;DHT22;6091;51.432;6.880;2022-10-30T13:16:26;28.50;42.40
12060;DHT22;6091;51.432;6.880;2022-10-30T13:19:01;28.50;42.40
12060;DHT22;6091;51.432;6.880;2022-10-30T13:27:37;28.50;42.30
12060;DHT22;6091;51.432;6.880;2022-10-30T13:30:19;28.40;42.30
12060;DHT22;6091;51.432;6.880;2022-10-30T13:36:27;28.40;42.30
12060;DHT22;6091;51.432;6.880;2022-10-30T13:39:06;28.40;42.20
12060;DHT22;6091;51.432;6.880;2022-10-30T13:53:32;28.20;42.30
12060;DHT22;6091;51.432;6.880;2022-10-30T13:56:03;28.20;42.30
12060;DHT22;6091;51.432;6.880;2022-10-30T13:58:45;28.20;42.40
12060;DHT22;6091;51.432;6.880;2022-10-30T14:04:51;28.20;42.40
12060;DHT22;6091;51.432;6.880;2022-10-30T14:10:53;28.20;42.30
12060;DHT22;6091;51.432;6.880;2022-10-30T14:13:28;28.10;42.30
12060;DHT22;6091;51.432;6.880;2022-10-30T14:19:09;28.10;42.30
12060;DHT22;6091;51.432;6.880;2022-10-30T14:21:57;28.10;42.40
12060;DHT22;6091;51.432;6.880;2022-10-30T14:24:30;28.10;42.50
12060;DHT22;6091;51.432;6.880;2022-10-30T14:34:55;28.00;42.50
12060;DHT22;6091;51.432;6.880;2022-10-30T14:39:55;28.00;42.50
12060;DHT22;6091;51.432;6.880;2022-10-30T14:42:44;28.00;42.50
12060;DHT22;6091;51.432;6.880;2022-10-30T14:51:16;28.00;42.50
12060;DHT22;6091;51.432;6.880;2022-10-30T14:54:11;28.00;42.40
12060;DHT22;6091;51.432;6.880;2022-10-30T14:56:51;28.00;42.40
12060;DHT22;6091;51.432;6.880;2022-10-30T14:59:23;28.40;42.70
12060;DHT22;6091;51.432;6.880;2022-10-30T15:02:14;28.00;42.50
12060;DHT22;6091;51.432;6.880;2022-10-30T15:05:16;28.00;42.50
12060;DHT22;6091;51.432;6.880;2022-10-30T15:14:44;28.00;42.50
12060;DHT22;6091;51.432;6.880;2022-10-30T15:17:28;27.90;42.40
12060;DHT22;6091;51.432;6.880;2022-10-30T15:20:01;27.90;42.40
12060;DHT22;6091;51.432;6.880;2022-10-30T15:22:33;27.60;42.30
12060;DHT22;6091;51.432;6.880;2022-10-30T15:25:02;27.80;42.40
12060;DHT22;6091;51.432;6.880;2022-10-30T15:27:31;27.80;42.50
12060;DHT22;6091;51.432;6.880;2022-10-30T15:30:02;27.80;42.50
12060;DHT22;6091;51.432;6.880;2022-10-30T15:32:30;27.80;42.50
12060;DHT22;6091;51.432;6.880;2022-10-30T15:35:03;27.80;42.60
12060;DHT22;6091;51.432;6.880;2022-10-30T15:37:38;27.90;42.60
12060;DHT22;6091;51.432;6.880;2022-10-30T15:40:18;27.80;42.60
12060;DHT22;6091;51.432;6.880;2022-10-30T15:42:47;27.80;42.60
12060;DHT22;6091;51.432;6.880;2022-10-30T15:45:22;27.80;42.60
12060;DHT22;6091;51.432;6.880;2022-10-30T15:48:44;27.80;42.60
12060;DHT22;6091;51.432;6.880;2022-10-30T15:51:04;27.80;42.60
12060;DHT22;6091;51.432;6.880;2022-10-30T15:53:43;27.80;42.60
12060;DHT22;6091;51.432;6.880;2022-10-30T15:56:18;27.80;42.70
12060;DHT22;6091;51.432;6.880;2022-10-30T15:58:51;27.80;42.60
12060;DHT22;6091;51.432;6.880;2022-10-30T16:01:33;27.80;42.70
12060;DHT22;6091;51.432;6.880;2022-10-30T16:04:15;27.80;42.70
12060;DHT22;6091;51.432;6.880;2022-10-30T16:06:53;27.80;42.80
12060;DHT22;6091;51.432;6.880;2022-10-30T16:09:27;27.70;42.70
12060;DHT22;6091;51.432;6.880;2022-10-30T16:11:59;27.70;42.70
12060;DHT22;6091;51.432;6.880;2022-10-30T16:14:29;27.70;42.70
12060;DHT22;6091;51.432;6.880;2022-10-30T16:16:59;27.70;42.80
12060;DHT22;6091;51.432;6.880;2022-10-30T16:19:28;28.10;43.00
12060;DHT22;6091;51.432;6.880;2022-10-30T16:21:59;27.60;42.70
12060;DHT22;6091;51.432;6.880;2022-10-30T16:24:34;27.70;43.70
12060;DHT22;6091;51.432;6.880;2022-10-30T16:27:03;27.70;42.90
12060;DHT22;6091;51.432;6.880;2022-10-30T16:29:50;27.70;42.90
12060;DHT22;6091;51.432;6.880;2022-10-30T16:32:20;27.70;43.00
12060;DHT22;6091;51.432;6.880;2022-10-30T16:34:57;27.70;42.90
12060;DHT22;6091;51.432;6.880;2022-10-30T16:37:32;27.70;43.00
12060;DHT22;6091;51.432;6.880;2022-10-30T16:42:48;27.70;43.00
12060;DHT22;6091;51.432;6.880;2022-10-30T16:48:07;27.70;43.00
12060;DHT22;6091;51.432;6.880;2022-10-30T16:50:43;27.80;43.20
12060;DHT22;6091;51.432;6.880;2022-10-30T16:53:17;27.70;42.90
12060;DHT22;6091;51.432;6.880;2022-10-30T16:55:47;27.80;43.10
12060;DHT22;6091;51.432;6.880;2022-10-30T16:58:15;27.70;43.00
12060;DHT22;6091;51.432;6.880;2022-10-30T17:00:52;27.70;43.00
12060;DHT22;6091;51.432;6.880;2022-10-30T17:03:23;27.80;43.10
12060;DHT22;6091;51.432;6.880;2022-10-30T17:06:04;27.70;43.00
12060;DHT22;6091;51.432;6.880;2022-10-30T17:08:52;27.70;43.10
12060;DHT22;6091;51.432;6.880;2022-10-30T17:17:43;27.80;43.10
12060;DHT22;6091;51.432;6.880;2022-10-30T17:20:37;27.70;43.00
12060;DHT22;6091;51.432;6.880;2022-10-30T17:23:17;27.70;43.00
12060;DHT22;6091;51.432;6.880;2022-10-30T17:25:46;27.70;43.00
12060;DHT22;6091;51.432;6.880;2022-10-30T17:28:29;27.70;43.00
12060;DHT22;6091;51.432;6.880;2022-10-30T17:34:19;27.70;43.00
12060;DHT22;6091;51.432;6.880;2022-10-30T17:36:47;27.70;43.10
12060;DHT22;6091;51.432;6.880;2022-10-30T17:39:15;27.60;42.90
12060;DHT22;6091;51.432;6.880;2022-10-30T17:41:42;27.60;42.90
12060;DHT22;6091;51.432;6.880;2022-10-30T17:44:18;27.60;43.10
12060;DHT22;6091;51.432;6.880;2022-10-30T17:46:48;27.60;43.10
12060;DHT22;6091;51.432;6.880;2022-10-30T17:49:30;27.50;43.00
12060;DHT22;6091;51.432;6.880;2022-10-30T17:51:58;27.50;43.00
12060;DHT22;6091;51.432;6.880;2022-10-30T17:54:25;27.50;43.00
12060;DHT22;6091;51.432;6.880;2022-10-30T17:56:57;27.50;43.20
12060;DHT22;6091;51.432;6.880;2022-10-30T17:59:24;27.50;43.10
12060;DHT22;6091;51.432;6.880;2022-10-30T18:01:51;27.50;43.10
12060;DHT22;6091;51.432;6.880;2022-10-30T18:04:18;27.50;43.00
12060;DHT22;6091;51.432;6.880;2022-10-30T18:06:47;27.50;43.10
12060;DHT22;6091;51.432;6.880;2022-10-30T18:09:15;27.40;43.00
12060;DHT22;6091;51.432;6.880;2022-10-30T18:11:42;27.40;43.10
12060;DHT22;6091;51.432;6.880;2022-10-30T18:14:10;27.40;43.10
12060;DHT22;6091;51.432;6.880;2022-10-30T18:16:37;27.40;43.10
12060;DHT22;6091;51.432;6.880;2022-10-30T18:19:08;27.40;43.10
12060;DHT22;6091;51.432;6.880;2022-10-30T18:21:36;27.40;43.20
12060;DHT22;6091;51.432;6.880;2022-10-30T18:24:14;27.30;43.10
12060;DHT22;6091;51.432;6.880;2022-10-30T18:26:41;27.30;43.20
12060;DHT22;6091;51.432;6.880;2022-10-30T18:29:09;27.30;43.10
12060;DHT22;6091;51.432;6.880;2022-10-30T18:31:37;27.30;43.10
12060;DHT22;6091;51.432;6.880;2022-10-30T18:34:28;27.30;43.20
12060;DHT22;6091;51.432;6.880;2022-10-30T18:36:55;27.30;43.70
12060;DHT22;6091;51.432;6.880;2022-10-30T18:39:22;27.30;43.20
12060;DHT22;6091;51.432;6.880;2022-10-30T18:41:49;27.30;43.20
12060;DHT22;6091;51.432;6.880;2022-10-30T18:44:17;27.30;43.20
12060;DHT22;6091;51.432;6.880;2022-10-30T18:46:45;27.20;43.20
12060;DHT22;6091;51.432;6.880;2022-10-30T18:49:12;27.20;43.30
12060;DHT22;6091;51.432;6.880;2022-10-30T18:51:41;27.20;43.20
12060;DHT22;6091;51.432;6.880;2022-10-30T18:54:17;27.20;43.30
12060;DHT22;6091;51.432;6.880;2022-10-30T18:56:46;27.20;43.30
12060;DHT22;6091;51.432;6.880;2022-10-30T18:59:13;27.10;43.20